sensor_id;sensor_type;location;lat;lon;timestamp;P1;durP1;ratioP1;P2;durP2;ratioP2
53939;SDS011;39850;43.324;21.916;2022-12-08T00:02:31;25.0;;;21.0;;
53939;SDS011;39850;43.324;21.916;2022-12-08T00:07:08;25.0;;;21.0;;
53939;SDS011;39850;43.324;21.916;2022-12-08T00:11:44;31.0;;;27.0;;
53939;SDS011;39850;43.324;21.916;2022-12-08T00:16:20;31.0;;;27.0;;
53939;SDS011;39850;43.324;21.916;2022-12-08T00:20:58;37.0;;;33.0;;
53939;SDS011;39850;43.324;21.916;2022-12-08T00:25:35;37.0;;;33.0;;
53939;SDS011;39850;43.324;21.916;2022-12-08T01:02:26;15.0;;;15.0;;
53939;SDS011;39850;43.324;21.916;2022-12-08T01:07:02;15.0;;;15.0;;
53939;SDS011;39850;43.324;21.916;2022-12-08T01:11:39;16.0;;;16.0;;
53939;SDS011;39850;43.324;21.916;2022-12-08T01:16:25;16.0;;;16.0;;
53939;SDS011;39850;43.324;21.916;2022-12-08T01:21:07;17.0;;;16.0;;
53939;SDS011;39850;43.324;21.916;2022-12-08T01:25:43;17.0;;;16.0;;
53939;SDS011;39850;43.324;21.916;2022-12-08T01:30:21;20.0;;;18.0;;
53939;SDS011;39850;43.324;21.916;2022-12-08T01:34:57;20.0;;;18.0;;
53939;SDS011;39850;43.324;21.916;2022-12-08T01:39:34;22.0;;;20.0;;
53939;SDS011;39850;43.324;21.916;2022-12-08T01:45:25;22.0;;;20.0;;
53939;SDS011;39850;43.324;21.916;2022-12-08T02:23:23;20.0;;;19.0;;
53939;SDS011;39850;43.324;21.916;2022-12-08T02:28:52;20.0;;;19.0;;
53939;SDS011;39850;43.324;21.916;2022-12-08T02:34:17;18.0;;;18.0;;
53939;SDS011;39850;43.324;21.916;2022-12-08T02:39:26;18.0;;;18.0;;
53939;SDS011;39850;43.324;21.916;2022-12-08T02:44:24;18.0;;;17.0;;
53939;SDS011;39850;43.324;21.916;2022-12-08T02:49:06;18.0;;;17.0;;
53939;SDS011;39850;43.324;21.916;2022-12-08T02:53:43;18.0;;;17.0;;
53939;SDS011;39850;43.324;21.916;2022-12-08T02:58:52;18.0;;;17.0;;
53939;SDS011;39850;43.324;21.916;2022-12-08T03:03:58;18.0;;;17.0;;
53939;SDS011;39850;43.324;21.916;2022-12-08T03:08:55;18.0;;;17.0;;
53939;SDS011;39850;43.324;21.916;2022-12-08T03:51:29;17.0;;;17.0;;
53939;SDS011;39850;43.324;21.916;2022-12-08T03:56:23;17.0;;;17.0;;
53939;SDS011;39850;43.324;21.916;2022-12-08T04:01:01;17.0;;;17.0;;
53939;SDS011;39850;43.324;21.916;2022-12-08T04:05:38;17.0;;;17.0;;
53939;SDS011;39850;43.324;21.916;2022-12-08T04:10:14;17.0;;;17.0;;
53939;SDS011;39850;43.324;21.916;2022-12-08T04:14:51;17.0;;;17.0;;
53939;SDS011;39850;43.324;21.916;2022-12-08T04:19:27;17.0;;;17.0;;
53939;SDS011;39850;43.324;21.916;2022-12-08T05:00:54;24.0;;;24.0;;
53939;SDS011;39850;43.324;21.916;2022-12-08T05:05:30;24.0;;;24.0;;
53939;SDS011;39850;43.324;21.916;2022-12-08T05:10:08;24.0;;;24.0;;
53939;SDS011;39850;43.324;21.916;2022-12-08T05:14:46;24.0;;;24.0;;
53939;SDS011;39850;43.324;21.916;2022-12-08T05:19:23;24.0;;;24.0;;
53939;SDS011;39850;43.324;21.916;2022-12-08T05:23:59;24.0;;;24.0;;
53939;SDS011;39850;43.324;21.916;2022-12-08T05:28:35;24.0;;;24.0;;
53939;SDS011;39850;43.324;21.916;2022-12-08T05:33:11;24.0;;;23.0;;
53939;SDS011;39850;43.324;21.916;2022-12-08T05:37:48;24.0;;;23.0;;
53939;SDS011;39850;43.324;21.916;2022-12-08T05:42:24;23.0;;;22.0;;
53939;SDS011;39850;43.324;21.916;2022-12-08T05:47:00;23.0;;;22.0;;
53939;SDS011;39850;43.324;21.916;2022-12-08T06:23:54;27.0;;;25.0;;
53939;SDS011;39850;43.324;21.916;2022-12-08T06:28:33;27.0;;;25.0;;
53939;SDS011;39850;43.324;21.916;2022-12-08T06:33:11;26.0;;;24.0;;
53939;SDS011;39850;43.324;21.916;2022-12-08T06:37:47;26.0;;;24.0;;
53939;SDS011;39850;43.324;21.916;2022-12-08T06:42:23;27.0;;;25.0;;
53939;SDS011;39850;43.324;21.916;2022-12-08T06:46:59;27.0;;;25.0;;
53939;SDS011;39850;43.324;21.916;2022-12-08T06:51:35;26.0;;;26.0;;
53939;SDS011;39850;43.324;21.916;2022-12-08T06:56:14;26.0;;;26.0;;
53939;SDS011;39850;43.324;21.916;2022-12-08T07:00:51;28.0;;;27.0;;
53939;SDS011;39850;43.324;21.916;2022-12-08T07:05:27;28.0;;;27.0;;
53939;SDS011;39850;43.324;21.916;2022-12-08T07:10:06;28.0;;;27.0;;
53939;SDS011;39850;43.324;21.916;2022-12-08T07:51:30;31.0;;;28.0;;
53939;SDS011;39850;43.324;21.916;2022-12-08T07:56:09;31.0;;;28.0;;
53939;SDS011;39850;43.324;21.916;2022-12-08T08:00:46;31.0;;;28.0;;
53939;SDS011;39850;43.324;21.916;2022-12-08T08:05:22;33.0;;;30.0;;
53939;SDS011;39850;43.324;21.916;2022-12-08T08:09:58;33.0;;;30.0;;
53939;SDS011;39850;43.324;21.916;2022-12-08T08:14:35;33.0;;;30.0;;
53939;SDS011;39850;43.324;21.916;2022-12-08T08:19:12;33.0;;;30.0;;
53939;SDS011;39850;43.324;21.916;2022-12-08T08:23:48;35.0;;;32.0;;
53939;SDS011;39850;43.324;21.916;2022-12-08T08:28:24;35.0;;;32.0;;
53939;SDS011;39850;43.324;21.916;2022-12-08T09:05:15;45.0;;;40.0;;
53939;SDS011;39850;43.324;21.916;2022-12-08T09:09:51;45.0;;;40.0;;
53939;SDS011;39850;43.324;21.916;2022-12-08T09:14:28;44.0;;;40.0;;
53939;SDS011;39850;43.324;21.916;2022-12-08T09:19:04;44.0;;;40.0;;
53939;SDS011;39850;43.324;21.916;2022-12-08T09:23:41;45.0;;;41.0;;
53939;SDS011;39850;43.324;21.916;2022-12-08T09:28:18;45.0;;;41.0;;
53939;SDS011;39850;43.324;21.916;2022-12-08T09:32:54;48.0;;;44.0;;
53939;SDS011;39850;43.324;21.916;2022-12-08T09:37:30;48.0;;;44.0;;
53939;SDS011;39850;43.324;21.916;2022-12-08T09:42:10;53.0;;;47.0;;
53939;SDS011;39850;43.324;21.916;2022-12-08T09:46:51;53.0;;;47.0;;
53939;SDS011;39850;43.324;21.916;2022-12-08T10:25:09;37.0;;;37.0;;
53939;SDS011;39850;43.324;21.916;2022-12-08T10:29:50;37.0;;;37.0;;
53939;SDS011;39850;43.324;21.916;2022-12-08T10:34:26;32.0;;;30.0;;
53939;SDS011;39850;43.324;21.916;2022-12-08T10:39:02;32.0;;;30.0;;
53939;SDS011;39850;43.324;21.916;2022-12-08T10:43:47;26.0;;;24.0;;
53939;SDS011;39850;43.324;21.916;2022-12-08T10:48:30;26.0;;;24.0;;
53939;SDS011;39850;43.324;21.916;2022-12-08T10:53:20;22.0;;;20.0;;
53939;SDS011;39850;43.324;21.916;2022-12-08T10:57:58;22.0;;;20.0;;
53939;SDS011;39850;43.324;21.916;2022-12-08T11:02:34;17.0;;;17.0;;
53939;SDS011;39850;43.324;21.916;2022-12-08T11:07:10;17.0;;;17.0;;
53939;SDS011;39850;43.324;21.916;2022-12-08T11:45:24;15.0;;;14.0;;
53939;SDS011;39850;43.324;21.916;2022-12-08T11:50:37;15.0;;;14.0;;
53939;SDS011;39850;43.324;21.916;2022-12-08T11:55:39;18.0;;;16.0;;
53939;SDS011;39850;43.324;21.916;2022-12-08T12:00:20;18.0;;;16.0;;
53939;SDS011;39850;43.324;21.916;2022-12-08T12:05:06;21.0;;;18.0;;
53939;SDS011;39850;43.324;21.916;2022-12-08T12:10:22;21.0;;;18.0;;
53939;SDS011;39850;43.324;21.916;2022-12-08T12:17:42;24.0;;;21.0;;
53939;SDS011;39850;43.324;21.916;2022-12-08T12:22:23;28.0;;;24.0;;
53939;SDS011;39850;43.324;21.916;2022-12-08T12:27:25;28.0;;;24.0;;
53939;SDS011;39850;43.324;21.916;2022-12-08T13:02:22;28.0;;;22.0;;
53939;SDS011;39850;43.324;21.916;2022-12-08T13:07:01;28.0;;;22.0;;
53939;SDS011;39850;43.324;21.916;2022-12-08T13:11:51;26.0;;;22.0;;
53939;SDS011;39850;43.324;21.916;2022-12-08T13:16:36;26.0;;;22.0;;
53939;SDS011;39850;43.324;21.916;2022-12-08T13:21:20;26.0;;;22.0;;
53939;SDS011;39850;43.324;21.916;2022-12-08T13:26:20;26.0;;;22.0;;
53939;SDS011;39850;43.324;21.916;2022-12-08T13:30:59;26.0;;;22.0;;
53939;SDS011;39850;43.324;21.916;2022-12-08T13:35:52;26.0;;;24.0;;
53939;SDS011;39850;43.324;21.916;2022-12-08T13:40:40;26.0;;;24.0;;
53939;SDS011;39850;43.324;21.916;2022-12-08T13:45:24;26.0;;;25.0;;
53939;SDS011;39850;43.324;21.916;2022-12-08T13:50:14;26.0;;;25.0;;
53939;SDS011;39850;43.324;21.916;2022-12-08T14:23:07;90.0;;;69.0;;
53939;SDS011;39850;43.324;21.916;2022-12-08T14:27:46;90.0;;;69.0;;
53939;SDS011;39850;43.324;21.916;2022-12-08T14:32:33;80.0;;;64.0;;
53939;SDS011;39850;43.324;21.916;2022-12-08T14:37:13;80.0;;;64.0;;
53939;SDS011;39850;43.324;21.916;2022-12-08T14:42:00;80.0;;;64.0;;
53939;SDS011;39850;43.324;21.916;2022-12-08T14:46:36;71.0;;;58.0;;
53939;SDS011;39850;43.324;21.916;2022-12-08T14:51:30;71.0;;;58.0;;
53939;SDS011;39850;43.324;21.916;2022-12-08T14:56:25;67.0;;;54.0;;
53939;SDS011;39850;43.324;21.916;2022-12-08T15:01:11;67.0;;;54.0;;
53939;SDS011;39850;43.324;21.916;2022-12-08T15:05:53;63.0;;;51.0;;
53939;SDS011;39850;43.324;21.916;2022-12-08T15:10:34;63.0;;;51.0;;
53939;SDS011;39850;43.324;21.916;2022-12-08T17:15:35;63.0;;;56.0;;
53939;SDS011;39850;43.324;21.916;2022-12-08T17:20:18;63.0;;;56.0;;
53939;SDS011;39850;43.324;21.916;2022-12-08T17:24:57;57.0;;;50.0;;
53939;SDS011;39850;43.324;21.916;2022-12-08T17:29:35;57.0;;;50.0;;
53939;SDS011;39850;43.324;21.916;2022-12-08T17:34:12;57.0;;;50.0;;
53939;SDS011;39850;43.324;21.916;2022-12-08T17:38:48;57.0;;;50.0;;
53939;SDS011;39850;43.324;21.916;2022-12-08T17:43:24;51.0;;;45.0;;
53939;SDS011;39850;43.324;21.916;2022-12-08T17:48:00;51.0;;;45.0;;
53939;SDS011;39850;43.324;21.916;2022-12-08T17:52:36;51.0;;;45.0;;
53939;SDS011;39850;43.324;21.916;2022-12-08T18:34:17;62.0;;;56.0;;
53939;SDS011;39850;43.324;21.916;2022-12-08T18:38:53;62.0;;;56.0;;
53939;SDS011;39850;43.324;21.916;2022-12-08T18:43:29;74.0;;;65.0;;
53939;SDS011;39850;43.324;21.916;2022-12-08T18:48:06;74.0;;;65.0;;
53939;SDS011;39850;43.324;21.916;2022-12-08T18:52:44;74.0;;;65.0;;
53939;SDS011;39850;43.324;21.916;2022-12-08T18:57:21;74.0;;;65.0;;
53939;SDS011;39850;43.324;21.916;2022-12-08T19:01:57;74.0;;;65.0;;
53939;SDS011;39850;43.324;21.916;2022-12-08T19:06:37;87.0;;;74.0;;
53939;SDS011;39850;43.324;21.916;2022-12-08T19:11:19;87.0;;;74.0;;
53939;SDS011;39850;43.324;21.916;2022-12-08T19:57:28;85.0;;;72.0;;
53939;SDS011;39850;43.324;21.916;2022-12-08T20:02:06;85.0;;;72.0;;
53939;SDS011;39850;43.324;21.916;2022-12-08T20:06:44;90.0;;;76.0;;
53939;SDS011;39850;43.324;21.916;2022-12-08T20:11:21;90.0;;;76.0;;
53939;SDS011;39850;43.324;21.916;2022-12-08T20:15:58;90.0;;;76.0;;
53939;SDS011;39850;43.324;21.916;2022-12-08T20:20:34;90.0;;;76.0;;
53939;SDS011;39850;43.324;21.916;2022-12-08T20:25:10;95.0;;;79.0;;
53939;SDS011;39850;43.324;21.916;2022-12-08T20:29:46;95.0;;;79.0;;
53939;SDS011;39850;43.324;21.916;2022-12-08T21:15:46;121.0;;;101.0;;
53939;SDS011;39850;43.324;21.916;2022-12-08T21:20:23;121.0;;;101.0;;
53939;SDS011;39850;43.324;21.916;2022-12-08T21:24:59;139.0;;;114.0;;
53939;SDS011;39850;43.324;21.916;2022-12-08T21:29:35;139.0;;;114.0;;
53939;SDS011;39850;43.324;21.916;2022-12-08T21:34:11;139.0;;;114.0;;
53939;SDS011;39850;43.324;21.916;2022-12-08T21:38:48;139.0;;;114.0;;
53939;SDS011;39850;43.324;21.916;2022-12-08T21:43:25;139.0;;;114.0;;
53939;SDS011;39850;43.324;21.916;2022-12-08T21:48:01;157.0;;;126.0;;
53939;SDS011;39850;43.324;21.916;2022-12-08T21:52:43;157.0;;;126.0;;
53939;SDS011;39850;43.324;21.916;2022-12-08T22:34:22;238.0;;;192.0;;
53939;SDS011;39850;43.324;21.916;2022-12-08T22:39:01;238.0;;;192.0;;
53939;SDS011;39850;43.324;21.916;2022-12-08T22:43:40;238.0;;;192.0;;
53939;SDS011;39850;43.324;21.916;2022-12-08T22:48:17;198.0;;;158.0;;
53939;SDS011;39850;43.324;21.916;2022-12-08T22:52:53;198.0;;;158.0;;
53939;SDS011;39850;43.324;21.916;2022-12-08T22:57:29;198.0;;;158.0;;
53939;SDS011;39850;43.324;21.916;2022-12-08T23:02:06;198.0;;;158.0;;
53939;SDS011;39850;43.324;21.916;2022-12-08T23:06:42;159.0;;;124.0;;
53939;SDS011;39850;43.324;21.916;2022-12-08T23:11:22;159.0;;;124.0;;
53939;SDS011;39850;43.324;21.916;2022-12-08T23:48:11;58.0;;;43.0;;
53939;SDS011;39850;43.324;21.916;2022-12-08T23:52:47;58.0;;;43.0;;
53939;SDS011;39850;43.324;21.916;2022-12-08T23:57:23;56.0;;;42.0;;
